MCB Quantico, Virginia
Current Conditions -  °F | °C
As of 10:56 AM on Saturday 20 Dec 2014 (Local Time) from KNYG Reporting Station
Clear Clear  
Wind Chill: 30°   Ceiling: Unl
Heat Index: 34°   Visibility: 10mi
Dew Point: 21°   Wind: 5mph
Humidity: 59%   Direction: 40°NE
Pressure: 30.34"   Gusts: NA
Location:  38.58°N, 77.4441°W
Report Text: KNYG 201556Z AUTO 04004KT 10SM CLR 01/M06 A3034 RMK AO2 SLP275 T00111061 $
Loading
Personal Weather Stations






























Interactive Weather Map New forecast layout! Learn more

10-Day Weather Forecast

Advertisements
Track Severe Weather on mobile